createdAt,value
2023-02-24T00:02:06.234Z,150.65
2023-02-24T00:04:40.429Z,146.43
2023-02-24T00:07:10.741Z,159.63
2023-02-24T00:09:39.620Z,154.55
2023-02-24T00:12:14.008Z,133.27
2023-02-24T00:14:45.180Z,150.10
2023-02-24T00:17:17.173Z,137.00
2023-02-24T00:19:46.636Z,143.65
2023-02-24T00:22:14.927Z,143.85
2023-02-24T00:24:42.779Z,154.02
2023-02-24T00:27:13.655Z,148.00
2023-02-24T00:29:46.208Z,149.88
2023-02-24T00:32:15.163Z,139.60
2023-02-24T00:34:43.624Z,148.57
2023-02-24T00:37:12.358Z,144.30
2023-02-24T00:39:41.997Z,136.68
2023-02-24T00:42:12.243Z,139.52
2023-02-24T00:44:44.422Z,135.63
2023-02-24T00:47:16.501Z,134.00
2023-02-24T00:49:44.871Z,142.27
2023-02-24T00:52:20.074Z,121.45
2023-02-24T00:54:49.929Z,135.10
2023-02-24T00:57:20.609Z,147.75
2023-02-24T00:59:51.603Z,125.60
2023-02-24T01:02:20.753Z,142.40
2023-02-24T01:04:50.151Z,130.63
2023-02-24T01:07:18.431Z,140.18
2023-02-24T01:09:46.480Z,136.02
2023-02-24T01:12:33.798Z,133.98
2023-02-24T01:15:03.375Z,123.03
2023-02-24T01:17:31.874Z,142.18
2023-02-24T01:20:01.441Z,141.82
2023-02-24T01:22:30.673Z,132.50
2023-02-24T01:24:58.952Z,133.10
2023-02-24T01:27:27.202Z,132.85
2023-02-24T01:29:55.051Z,131.88
2023-02-24T01:32:25.683Z,126.60
2023-02-24T01:34:53.823Z,138.20
2023-02-24T01:37:22.317Z,134.80
2023-02-24T01:39:50.605Z,133.95
2023-02-24T01:42:21.491Z,141.63
2023-02-24T01:44:52.354Z,138.98
2023-02-24T01:47:22.801Z,133.82
2023-02-24T01:49:54.413Z,136.23
2023-02-24T01:52:26.846Z,126.32
2023-02-24T01:55:20.384Z,146.07
2023-02-24T01:57:51.997Z,133.98
2023-02-24T02:00:40.591Z,133.52
2023-02-24T02:03:19.838Z,133.82
2023-02-24T02:05:48.964Z,133.88
2023-02-24T02:08:18.799Z,122.43
2023-02-24T02:10:47.231Z,128.90
2023-02-24T02:13:21.927Z,127.88
2023-02-24T02:15:59.679Z,131.02
2023-02-24T02:18:48.046Z,120.85
2023-02-24T02:21:55.341Z,125.07
2023-02-24T02:24:40.348Z,136.63
2023-02-24T02:27:33.367Z,132.73
2023-02-24T02:30:17.814Z,125.45
2023-02-24T02:35:37.308Z,128.45
2023-02-24T02:38:26.222Z,123.50
2023-02-24T02:41:23.977Z,138.35
2023-02-24T02:43:57.286Z,129.18
2023-02-24T02:46:35.107Z,134.45
2023-02-24T02:49:24.628Z,121.00
2023-02-24T02:51:59.914Z,129.98
2023-02-24T02:54:50.095Z,129.77
2023-02-24T02:57:28.321Z,128.80
2023-02-24T03:00:14.299Z,126.95
2023-02-24T03:02:47.346Z,133.52
2023-02-24T03:05:20.791Z,123.38
2023-02-24T03:07:53.531Z,134.43
2023-02-24T03:10:28.201Z,123.72
2023-02-24T03:13:01.105Z,129.45
2023-02-24T03:15:33.808Z,139.50
2023-02-24T03:18:10.680Z,115.18
2023-02-24T03:21:29.522Z,121.30
2023-02-24T03:23:57.942Z,122.55
2023-02-24T03:26:50.047Z,124.05
2023-02-24T03:29:27.655Z,123.32
2023-02-24T03:32:09.586Z,129.23
2023-02-24T03:35:04.854Z,119.10
2023-02-24T03:37:34.483Z,120.93
2023-02-24T03:40:14.953Z,134.70
2023-02-24T03:42:51.104Z,126.63
2023-02-24T03:45:23.016Z,123.00
2023-02-24T03:47:54.380Z,126.57
2023-02-24T03:50:23.470Z,120.75
2023-02-24T03:53:08.488Z,123.18
2023-02-24T03:56:05.202Z,132.57
2023-02-24T04:01:58.272Z,131.70
2023-02-24T04:04:48.775Z,126.00
2023-02-24T04:07:41.562Z,126.38
2023-02-24T04:10:34.502Z,130.65
2023-02-24T04:13:05.002Z,118.53
2023-02-24T04:15:44.599Z,128.35
2023-02-24T04:18:13.934Z,130.52
2023-02-24T04:20:45.775Z,127.53
2023-02-24T04:23:18.660Z,123.65
2023-02-24T04:25:52.038Z,119.82
2023-02-24T04:28:23.640Z,127.90
2023-02-24T04:31:00.986Z,123.85
2023-02-24T04:33:29.617Z,115.35
2023-02-24T04:35:57.815Z,127.32
2023-02-24T04:38:28.176Z,119.55
2023-02-24T04:40:57.698Z,120.38
2023-02-24T04:43:26.109Z,120.40
2023-02-24T04:45:56.006Z,117.25
2023-02-24T04:48:24.358Z,120.70
2023-02-24T04:50:55.551Z,121.43
2023-02-24T04:53:27.537Z,117.00
2023-02-24T04:55:56.526Z,117.93
2023-02-24T04:58:29.637Z,134.50
2023-02-24T05:00:57.662Z,137.05
2023-02-24T05:03:29.312Z,123.45
2023-02-24T05:06:02.218Z,127.03
2023-02-24T05:08:31.411Z,126.20
2023-02-24T05:11:04.125Z,126.28
2023-02-24T05:13:34.094Z,121.60
2023-02-24T05:16:08.877Z,129.38
2023-02-24T05:18:37.573Z,123.65
2023-02-24T05:21:27.079Z,125.32
2023-02-24T05:23:58.407Z,121.63
2023-02-24T05:26:27.294Z,123.68
2023-02-24T05:28:56.795Z,127.72
2023-02-24T05:31:28.539Z,122.40
2023-02-24T05:34:03.380Z,128.48
2023-02-24T05:36:35.052Z,120.85
2023-02-24T05:39:07.856Z,129.60
2023-02-24T05:41:39.064Z,119.25
2023-02-24T05:44:13.641Z,119.63
2023-02-24T05:46:44.941Z,131.60
2023-02-24T05:49:20.962Z,123.38
2023-02-24T05:51:57.553Z,118.65
2023-02-24T05:54:31.650Z,127.47
2023-02-24T05:57:09.470Z,127.75
2023-02-24T05:59:39.406Z,136.77
2023-02-24T06:02:11.650Z,139.38
2023-02-24T06:04:51.666Z,135.70
2023-02-24T06:07:25.119Z,132.43
2023-02-24T06:09:57.489Z,149.38
2023-02-24T06:12:28.573Z,141.27
2023-02-24T06:15:00.245Z,144.80
2023-02-24T06:17:28.619Z,135.35
2023-02-24T06:19:57.206Z,137.38
2023-02-24T06:22:26.914Z,135.05
2023-02-24T06:24:57.266Z,131.95
2023-02-24T06:27:25.736Z,136.30
2023-02-24T06:29:55.211Z,141.23
2023-02-24T06:32:26.814Z,132.77
2023-02-24T06:34:55.655Z,133.63
2023-02-24T06:37:23.638Z,134.60
2023-02-24T06:39:52.151Z,129.75
2023-02-24T06:42:20.134Z,138.98
2023-02-24T06:44:49.134Z,139.50
2023-02-24T06:47:18.272Z,134.70
2023-02-24T06:49:46.585Z,133.23
2023-02-24T06:52:19.318Z,149.07
2023-02-24T06:54:49.754Z,139.77
2023-02-24T06:57:18.079Z,132.80
2023-02-24T06:59:46.555Z,139.95
2023-02-24T07:02:14.592Z,138.38
2023-02-24T07:04:45.656Z,143.63
2023-02-24T07:07:17.772Z,131.70
2023-02-24T07:09:46.284Z,146.85
2023-02-24T07:12:15.848Z,141.13
2023-02-24T07:14:44.303Z,133.23
2023-02-24T07:17:14.954Z,150.55
2023-02-24T07:19:44.494Z,133.43
2023-02-24T07:22:14.907Z,143.10
2023-02-24T07:24:46.611Z,135.48
2023-02-24T07:27:23.379Z,144.43
2023-02-24T07:29:53.181Z,129.18
2023-02-24T07:32:23.320Z,134.98
2023-02-24T07:34:51.889Z,153.88
2023-02-24T07:37:20.846Z,126.90
2023-02-24T07:39:49.250Z,137.05
2023-02-24T07:42:17.396Z,133.35
2023-02-24T07:44:49.409Z,135.38
2023-02-24T07:47:17.899Z,136.20
2023-02-24T07:49:46.813Z,128.18
2023-02-24T07:52:16.612Z,141.93
2023-02-24T07:54:45.599Z,139.60
2023-02-24T07:57:14.404Z,146.27
2023-02-24T07:59:45.706Z,131.38
2023-02-24T08:02:14.067Z,134.90
2023-02-24T08:04:50.629Z,131.18
2023-02-24T08:07:25.213Z,148.63
2023-02-24T08:10:12.441Z,161.50
2023-02-24T08:12:44.989Z,150.27
2023-02-24T08:15:24.398Z,146.80
2023-02-24T08:17:57.422Z,162.45
2023-02-24T08:20:52.652Z,163.82
2023-02-24T08:23:23.736Z,158.07
2023-02-24T08:25:54.069Z,151.90
2023-02-24T08:28:27.109Z,159.32
2023-02-24T08:30:56.013Z,176.88
2023-02-24T08:33:24.197Z,155.98
2023-02-24T08:36:01.687Z,152.70
2023-02-24T08:38:40.262Z,154.40
2023-02-24T08:41:18.669Z,146.60
2023-02-24T08:43:48.801Z,145.88
2023-02-24T08:46:27.070Z,144.20
2023-02-24T08:48:58.245Z,138.88
2023-02-24T08:51:35.345Z,134.75
2023-02-24T08:54:15.593Z,146.45
2023-02-24T08:56:49.955Z,126.97
2023-02-24T09:02:18.934Z,136.00
2023-02-24T09:04:49.686Z,138.02
2023-02-24T09:07:25.676Z,150.73
2023-02-24T09:09:57.375Z,155.85
2023-02-24T09:12:29.393Z,151.77
2023-02-24T09:15:05.053Z,156.73
2023-02-24T09:17:46.438Z,165.10
2023-02-24T09:20:36.185Z,154.73
2023-02-24T09:23:06.353Z,175.07
2023-02-24T09:25:41.134Z,157.68
2023-02-24T09:28:17.388Z,172.80
2023-02-24T09:31:17.349Z,175.75
2023-02-24T09:33:51.366Z,174.48
2023-02-24T09:39:00.982Z,156.13
2023-02-24T09:41:54.141Z,176.63
2023-02-24T09:44:39.681Z,172.23
2023-02-24T09:47:57.186Z,178.00
2023-02-24T09:51:04.245Z,173.05
2023-02-24T09:53:49.570Z,162.25
2023-02-24T09:56:25.893Z,178.93
2023-02-24T09:59:15.315Z,155.07
2023-02-24T10:01:46.616Z,175.32
2023-02-24T10:04:34.062Z,152.10
2023-02-24T10:07:30.652Z,141.50
2023-02-24T10:10:20.467Z,150.77
2023-02-24T10:13:14.393Z,150.80
2023-02-24T10:15:58.506Z,148.38
2023-02-24T10:18:31.995Z,142.65
2023-02-24T10:21:48.505Z,136.57
2023-02-24T10:24:29.699Z,139.93
2023-02-24T10:27:27.524Z,143.05
2023-02-24T10:30:20.020Z,134.07
2023-02-24T10:33:05.649Z,132.13
2023-02-24T10:35:34.452Z,145.75
2023-02-24T10:38:06.153Z,128.43
2023-02-24T10:40:45.320Z,140.45
2023-02-24T10:43:30.346Z,130.27
2023-02-24T10:46:06.473Z,139.02
2023-02-24T10:48:42.501Z,123.45
2023-02-24T10:51:20.744Z,136.20
2023-02-24T10:54:13.385Z,128.43
2023-02-24T10:56:55.553Z,140.32
2023-02-24T10:59:49.860Z,153.15
2023-02-24T11:02:33.111Z,132.60
2023-02-24T11:05:27.423Z,129.20
2023-02-24T11:08:33.623Z,139.95
2023-02-24T11:11:07.465Z,124.32
2023-02-24T11:13:56.024Z,127.32
2023-02-24T11:16:42.479Z,137.52
2023-02-24T11:19:11.549Z,132.68
2023-02-24T11:21:39.619Z,129.65
2023-02-24T11:24:18.450Z,145.35
2023-02-24T11:26:47.004Z,130.10
2023-02-24T11:29:27.333Z,118.40
2023-02-24T11:32:01.992Z,120.05
2023-02-24T11:35:18.348Z,122.75
2023-02-24T11:38:06.429Z,113.18
2023-02-24T11:40:42.148Z,118.43
2023-02-24T11:43:18.772Z,125.03
2023-02-24T11:45:52.781Z,120.15
2023-02-24T11:51:11.242Z,117.47
2023-02-24T11:53:42.122Z,114.40
2023-02-24T11:56:22.360Z,113.38
2023-02-24T11:59:25.397Z,110.95
2023-02-24T12:02:22.056Z,127.75
2023-02-24T12:05:03.905Z,122.47
2023-02-24T12:07:42.802Z,115.38
2023-02-24T12:10:20.589Z,103.75
2023-02-24T12:13:11.440Z,112.72
2023-02-24T12:15:46.991Z,114.18
2023-02-24T12:18:39.529Z,111.13
2023-02-24T12:21:10.475Z,112.20
2023-02-24T12:23:44.886Z,114.28
2023-02-24T12:26:40.078Z,111.45
2023-02-24T12:29:08.431Z,116.72
2023-02-24T12:31:41.927Z,116.80
2023-02-24T12:34:23.675Z,113.85
2023-02-24T12:37:30.592Z,112.88
2023-02-24T12:40:01.680Z,115.78
2023-02-24T12:42:29.531Z,96.57
2023-02-24T12:45:26.449Z,90.97
2023-02-24T12:48:12.301Z,98.15
2023-02-24T12:50:49.297Z,99.10
2023-02-24T12:53:43.551Z,102.15
2023-02-24T12:56:27.900Z,94.38
2023-02-24T12:59:05.752Z,97.93
2023-02-24T13:01:51.931Z,109.18
2023-02-24T13:04:48.397Z,103.82
2023-02-24T13:07:32.383Z,96.63
2023-02-24T13:10:06.376Z,99.00
2023-02-24T13:12:57.256Z,89.70
2023-02-24T13:15:31.671Z,98.72
2023-02-24T13:18:00.476Z,92.70
2023-02-24T13:20:30.246Z,98.38
2023-02-24T13:23:00.434Z,92.00
2023-02-24T13:25:37.483Z,93.38
2023-02-24T13:28:26.252Z,108.68
2023-02-24T13:31:04.282Z,93.57
2023-02-24T13:33:36.329Z,94.47
2023-02-24T13:36:22.001Z,87.53
2023-02-24T13:39:06.687Z,89.05
2023-02-24T13:41:41.151Z,82.55
2023-02-24T13:44:29.207Z,94.88
2023-02-24T13:47:29.471Z,95.38
2023-02-24T13:50:27.225Z,85.93
2023-02-24T13:53:24.203Z,92.90
2023-02-24T13:55:58.599Z,91.75
2023-02-24T13:58:40.317Z,90.93
2023-02-24T14:01:18.752Z,87.00
2023-02-24T14:04:22.914Z,75.00
2023-02-24T14:06:58.182Z,73.30
2023-02-24T14:09:32.972Z,89.90
2023-02-24T14:12:08.314Z,81.03
2023-02-24T14:14:36.863Z,73.97
2023-02-24T14:17:05.239Z,84.72
2023-02-24T14:19:33.264Z,88.82
2023-02-24T14:22:02.540Z,78.68
2023-02-24T14:24:30.541Z,86.68
2023-02-24T14:26:59.795Z,75.43
2023-02-24T14:29:32.400Z,78.57
2023-02-24T14:32:01.623Z,78.57
2023-02-24T14:34:32.693Z,79.10
2023-02-24T14:37:04.232Z,72.97
2023-02-24T14:39:34.476Z,79.25
2023-02-24T14:42:09.760Z,73.43
2023-02-24T14:44:47.902Z,82.57
2023-02-24T14:47:18.659Z,83.10
2023-02-24T14:49:57.394Z,78.75
2023-02-24T14:52:36.828Z,82.13
2023-02-24T14:55:26.712Z,74.28
2023-02-24T14:58:06.959Z,80.03
2023-02-24T15:00:49.152Z,84.22
2023-02-24T15:03:29.494Z,84.45
2023-02-24T15:06:04.915Z,81.18
2023-02-24T15:08:46.891Z,87.82
2023-02-24T15:11:17.530Z,82.80
2023-02-24T15:13:59.332Z,84.82
2023-02-24T15:16:33.959Z,83.40
2023-02-24T15:19:02.464Z,81.88
2023-02-24T15:21:39.490Z,91.55
2023-02-24T15:24:19.661Z,87.32
2023-02-24T15:26:59.998Z,82.47
2023-02-24T15:29:30.949Z,77.53
2023-02-24T15:32:01.089Z,88.97
2023-02-24T15:34:32.897Z,81.65
2023-02-24T15:37:15.087Z,87.78
2023-02-24T15:39:44.635Z,83.25
2023-02-24T15:42:28.661Z,92.28
2023-02-24T15:45:23.441Z,92.72
2023-02-24T15:47:54.746Z,80.90
2023-02-24T15:50:24.056Z,95.72
2023-02-24T15:52:52.156Z,82.95
2023-02-24T15:55:22.205Z,96.00
2023-02-24T15:58:01.567Z,80.72
2023-02-24T16:00:31.542Z,89.93
2023-02-24T16:02:59.507Z,83.53
2023-02-24T16:05:27.970Z,87.43
2023-02-24T16:07:56.463Z,78.63
2023-02-24T16:10:27.834Z,91.45
2023-02-24T16:13:01.687Z,88.05
2023-02-24T16:15:38.112Z,91.45
2023-02-24T16:18:20.985Z,78.40
2023-02-24T16:20:57.120Z,83.68
2023-02-24T16:23:26.625Z,81.13
2023-02-24T16:25:58.455Z,91.25
2023-02-24T16:28:27.336Z,90.25
2023-02-24T16:30:55.671Z,75.35
2023-02-24T16:33:24.275Z,81.50
2023-02-24T16:35:55.819Z,82.28
2023-02-24T16:38:27.122Z,77.57
2023-02-24T16:40:56.092Z,79.70
2023-02-24T16:43:24.949Z,80.97
2023-02-24T16:45:55.758Z,82.93
2023-02-24T16:48:26.667Z,83.25
2023-02-24T16:50:55.714Z,79.70
2023-02-24T16:53:24.845Z,93.90
2023-02-24T16:55:53.722Z,83.15
2023-02-24T16:58:23.629Z,77.90
2023-02-24T17:00:55.650Z,77.95
2023-02-24T17:03:30.860Z,83.65
2023-02-24T17:05:59.399Z,82.10
2023-02-24T17:08:27.379Z,89.38
2023-02-24T17:10:56.479Z,88.03
2023-02-24T17:13:24.379Z,97.60
2023-02-24T17:15:57.632Z,88.10
2023-02-24T17:18:27.131Z,96.53
2023-02-24T17:20:55.743Z,79.60
2023-02-24T17:23:24.047Z,79.00
2023-02-24T17:25:56.256Z,116.90
2023-02-24T17:28:24.432Z,100.97
2023-02-24T17:30:52.898Z,107.15
2023-02-24T17:33:21.085Z,83.55
2023-02-24T17:35:49.836Z,76.88
2023-02-24T17:38:21.678Z,78.75
2023-02-24T17:40:49.940Z,84.57
2023-02-24T17:43:18.137Z,92.15
2023-02-24T17:45:47.539Z,88.13
2023-02-24T17:48:16.209Z,91.25
2023-02-24T17:50:46.548Z,93.00
2023-02-24T17:53:15.627Z,91.47
2023-02-24T17:56:01.006Z,102.20
2023-02-24T17:58:30.253Z,84.47
2023-02-24T18:00:58.757Z,92.30
2023-02-24T18:03:26.778Z,79.90
2023-02-24T18:06:07.915Z,88.97
2023-02-24T18:08:37.106Z,76.38
2023-02-24T18:11:06.877Z,90.63
2023-02-24T18:13:34.919Z,85.50
2023-02-24T18:16:08.929Z,77.13
2023-02-24T18:18:37.359Z,85.43
2023-02-24T18:21:08.931Z,91.03
2023-02-24T18:23:40.423Z,83.55
2023-02-24T18:26:11.152Z,94.47
2023-02-24T18:28:39.636Z,88.68
2023-02-24T18:31:19.358Z,95.20
2023-02-24T18:33:47.730Z,94.10
2023-02-24T18:36:16.993Z,90.03
2023-02-24T18:38:45.392Z,90.85
2023-02-24T18:41:17.280Z,92.78
2023-02-24T18:43:49.458Z,92.28
2023-02-24T18:46:18.856Z,91.72
2023-02-24T18:48:47.694Z,104.22
2023-02-24T18:51:18.522Z,90.47
2023-02-24T18:53:47.263Z,81.03
2023-02-24T18:56:19.716Z,88.38
2023-02-24T18:58:50.074Z,95.53
2023-02-24T19:01:25.520Z,94.38
2023-02-24T19:03:55.565Z,95.07
2023-02-24T19:06:27.093Z,90.20
2023-02-24T19:09:12.711Z,89.70
2023-02-24T19:11:41.935Z,89.70
2023-02-24T19:14:12.092Z,87.97
2023-02-24T19:16:41.295Z,102.75
2023-02-24T19:19:16.266Z,92.22
2023-02-24T19:21:45.756Z,105.78
2023-02-24T19:24:14.200Z,88.45
2023-02-24T19:26:44.571Z,94.38
2023-02-24T19:29:12.648Z,97.35
2023-02-24T19:31:41.266Z,88.80
2023-02-24T19:34:13.156Z,90.15
2023-02-24T19:36:41.474Z,106.35
2023-02-24T19:39:12.633Z,91.45
2023-02-24T19:41:41.403Z,91.82
2023-02-24T19:44:10.696Z,102.03
2023-02-24T19:46:39.232Z,91.43
2023-02-24T19:49:07.447Z,88.40
2023-02-24T19:51:35.927Z,94.30
2023-02-24T19:54:06.379Z,123.72
2023-02-24T19:56:36.867Z,102.68
2023-02-24T19:59:06.943Z,91.03
2023-02-24T20:01:35.322Z,102.50
2023-02-24T20:04:04.133Z,97.07
2023-02-24T20:06:35.973Z,93.25
2023-02-24T20:09:15.291Z,101.72
2023-02-24T20:11:45.532Z,101.70
2023-02-24T20:14:17.040Z,93.10
2023-02-24T20:16:46.119Z,100.60
2023-02-24T20:19:15.445Z,92.90
2023-02-24T20:21:44.255Z,97.07
2023-02-24T20:24:15.709Z,109.63
2023-02-24T20:26:47.403Z,108.65
2023-02-24T20:29:17.016Z,101.40
2023-02-24T20:31:46.725Z,96.50
2023-02-24T20:34:17.208Z,102.50
2023-02-24T20:36:45.648Z,104.93
2023-02-24T20:39:13.912Z,103.30
2023-02-24T20:41:42.586Z,102.90
2023-02-24T20:44:12.023Z,107.43
2023-02-24T20:46:40.248Z,103.72
2023-02-24T20:49:12.015Z,102.95
2023-02-24T20:51:41.310Z,105.47
2023-02-24T20:54:11.538Z,102.00
2023-02-24T20:56:43.150Z,108.30
2023-02-24T20:59:16.890Z,110.45
2023-02-24T21:01:47.535Z,99.10
2023-02-24T21:04:18.527Z,100.53
2023-02-24T21:06:48.293Z,98.85
2023-02-24T21:09:16.604Z,109.43
2023-02-24T21:11:44.999Z,105.88
2023-02-24T21:14:15.809Z,105.20
2023-02-24T21:16:46.360Z,94.43
2023-02-24T21:19:14.921Z,104.00
2023-02-24T21:21:43.116Z,104.05
2023-02-24T21:24:10.892Z,116.22
2023-02-24T21:26:39.171Z,98.68
2023-02-24T21:29:07.223Z,108.28
2023-02-24T21:31:35.539Z,108.18
2023-02-24T21:34:04.022Z,111.30
2023-02-24T21:36:32.213Z,104.30
2023-02-24T21:39:01.087Z,98.50
2023-02-24T21:41:29.265Z,116.85
2023-02-24T21:43:57.246Z,108.50
2023-02-24T21:46:28.673Z,116.88
2023-02-24T21:49:00.468Z,106.53
2023-02-24T21:51:29.413Z,100.90
2023-02-24T21:53:58.107Z,112.63
2023-02-24T21:56:29.173Z,102.00
2023-02-24T21:59:03.414Z,115.57
2023-02-24T22:01:37.177Z,112.85
2023-02-24T22:04:08.218Z,108.68
2023-02-24T22:06:38.121Z,126.47
2023-02-24T22:09:08.014Z,107.07
2023-02-24T22:11:38.965Z,115.15
2023-02-24T22:14:09.015Z,102.65
2023-02-24T22:16:37.590Z,108.78
2023-02-24T22:19:05.772Z,112.47
2023-02-24T22:21:34.449Z,117.07
2023-02-24T22:24:03.315Z,101.00
2023-02-24T22:26:32.384Z,96.72
2023-02-24T22:29:00.804Z,104.70
2023-02-24T22:31:31.832Z,108.25
2023-02-24T22:34:00.429Z,101.25
2023-02-24T22:36:33.381Z,113.60
2023-02-24T22:39:01.889Z,130.35
2023-02-24T22:41:32.868Z,110.90
2023-02-24T22:44:05.169Z,102.70
2023-02-24T22:46:37.109Z,107.82
2023-02-24T22:49:05.995Z,110.28
2023-02-24T22:51:34.256Z,108.25
2023-02-24T22:54:02.282Z,105.28
2023-02-24T22:56:30.933Z,107.47
2023-02-24T22:58:59.386Z,107.90
2023-02-24T23:01:30.507Z,112.43
2023-02-24T23:04:03.791Z,115.95
2023-02-24T23:06:33.074Z,107.55
2023-02-24T23:09:02.134Z,108.22
2023-02-24T23:11:33.586Z,111.82
2023-02-24T23:14:04.133Z,112.57
2023-02-24T23:16:34.911Z,116.95
2023-02-24T23:19:07.489Z,106.63
2023-02-24T23:21:41.691Z,112.83
2023-02-24T23:24:11.422Z,117.32
2023-02-24T23:26:48.519Z,103.30
2023-02-24T23:29:17.977Z,110.57
2023-02-24T23:31:46.530Z,118.97
2023-02-24T23:34:15.021Z,113.82
2023-02-24T23:36:45.630Z,115.22
2023-02-24T23:39:16.359Z,119.40
2023-02-24T23:41:44.627Z,113.22
2023-02-24T23:44:12.867Z,113.82
2023-02-24T23:46:44.229Z,125.97
2023-02-24T23:49:11.983Z,111.95
2023-02-24T23:51:47.989Z,131.55
2023-02-24T23:54:18.224Z,128.93
2023-02-24T23:56:47.152Z,127.28
2023-02-24T23:59:15.311Z,121.15
